sensor_id;sensor_type;location;lat;lon;timestamp;P1;durP1;ratioP1;P2;durP2;ratioP2
68234;SDS011;55052;52.056;5.296;2022-08-21T00:01:35;5.30;;;3.08;;
68234;SDS011;55052;52.056;5.296;2022-08-21T00:04:05;9.32;;;4.53;;
68234;SDS011;55052;52.056;5.296;2022-08-21T00:06:33;6.55;;;3.03;;
68234;SDS011;55052;52.056;5.296;2022-08-21T00:09:00;5.45;;;2.92;;
68234;SDS011;55052;52.056;5.296;2022-08-21T00:11:32;8.65;;;3.53;;
68234;SDS011;55052;52.056;5.296;2022-08-21T00:13:59;5.25;;;3.10;;
68234;SDS011;55052;52.056;5.296;2022-08-21T00:16:26;6.90;;;3.45;;
68234;SDS011;55052;52.056;5.296;2022-08-21T00:18:53;6.78;;;3.45;;
68234;SDS011;55052;52.056;5.296;2022-08-21T00:21:20;7.40;;;3.80;;
68234;SDS011;55052;52.056;5.296;2022-08-21T00:23:48;7.57;;;3.40;;
68234;SDS011;55052;52.056;5.296;2022-08-21T00:26:15;6.18;;;3.25;;
68234;SDS011;55052;52.056;5.296;2022-08-21T00:28:41;6.28;;;3.53;;
68234;SDS011;55052;52.056;5.296;2022-08-21T00:31:08;8.98;;;3.40;;
68234;SDS011;55052;52.056;5.296;2022-08-21T00:33:35;6.65;;;3.78;;
68234;SDS011;55052;52.056;5.296;2022-08-21T00:36:02;6.10;;;3.20;;
68234;SDS011;55052;52.056;5.296;2022-08-21T00:38:29;5.93;;;3.30;;
68234;SDS011;55052;52.056;5.296;2022-08-21T00:40:58;6.85;;;3.70;;
68234;SDS011;55052;52.056;5.296;2022-08-21T00:43:46;8.98;;;3.65;;
68234;SDS011;55052;52.056;5.296;2022-08-21T00:46:13;5.60;;;3.25;;
68234;SDS011;55052;52.056;5.296;2022-08-21T00:48:40;6.32;;;3.25;;
68234;SDS011;55052;52.056;5.296;2022-08-21T00:51:08;6.32;;;3.10;;
68234;SDS011;55052;52.056;5.296;2022-08-21T00:53:42;6.32;;;3.00;;
68234;SDS011;55052;52.056;5.296;2022-08-21T00:56:18;6.22;;;3.05;;
68234;SDS011;55052;52.056;5.296;2022-08-21T00:58:47;5.82;;;3.70;;
68234;SDS011;55052;52.056;5.296;2022-08-21T01:01:19;6.80;;;3.22;;
68234;SDS011;55052;52.056;5.296;2022-08-21T01:03:47;6.40;;;3.45;;
68234;SDS011;55052;52.056;5.296;2022-08-21T01:06:15;5.60;;;3.15;;
68234;SDS011;55052;52.056;5.296;2022-08-21T01:08:42;8.13;;;3.70;;
68234;SDS011;55052;52.056;5.296;2022-08-21T01:11:12;7.00;;;3.22;;
68234;SDS011;55052;52.056;5.296;2022-08-21T01:13:40;6.25;;;3.38;;
68234;SDS011;55052;52.056;5.296;2022-08-21T01:16:13;7.00;;;3.20;;
68234;SDS011;55052;52.056;5.296;2022-08-21T01:18:43;5.78;;;3.10;;
68234;SDS011;55052;52.056;5.296;2022-08-21T01:21:15;6.90;;;3.30;;
68234;SDS011;55052;52.056;5.296;2022-08-21T01:23:46;5.82;;;3.10;;
68234;SDS011;55052;52.056;5.296;2022-08-21T01:26:15;8.87;;;3.83;;
68234;SDS011;55052;52.056;5.296;2022-08-21T01:28:46;7.90;;;3.60;;
68234;SDS011;55052;52.056;5.296;2022-08-21T01:33:52;6.60;;;3.15;;
68234;SDS011;55052;52.056;5.296;2022-08-21T01:36:20;9.00;;;3.88;;
68234;SDS011;55052;52.056;5.296;2022-08-21T01:38:47;7.85;;;3.50;;
68234;SDS011;55052;52.056;5.296;2022-08-21T01:41:14;8.05;;;3.53;;
68234;SDS011;55052;52.056;5.296;2022-08-21T01:43:42;7.93;;;3.35;;
68234;SDS011;55052;52.056;5.296;2022-08-21T01:46:10;7.13;;;3.53;;
68234;SDS011;55052;52.056;5.296;2022-08-21T01:48:37;5.35;;;3.17;;
68234;SDS011;55052;52.056;5.296;2022-08-21T01:51:05;6.88;;;3.30;;
68234;SDS011;55052;52.056;5.296;2022-08-21T01:53:33;7.45;;;3.25;;
68234;SDS011;55052;52.056;5.296;2022-08-21T01:56:03;5.22;;;3.28;;
68234;SDS011;55052;52.056;5.296;2022-08-21T01:58:37;7.30;;;4.03;;
68234;SDS011;55052;52.056;5.296;2022-08-21T02:01:05;9.02;;;3.50;;
68234;SDS011;55052;52.056;5.296;2022-08-21T02:03:32;10.50;;;3.70;;
68234;SDS011;55052;52.056;5.296;2022-08-21T02:06:02;8.50;;;3.42;;
68234;SDS011;55052;52.056;5.296;2022-08-21T02:08:30;9.73;;;3.08;;
68234;SDS011;55052;52.056;5.296;2022-08-21T02:10:57;6.30;;;3.38;;
68234;SDS011;55052;52.056;5.296;2022-08-21T02:13:24;7.22;;;3.70;;
68234;SDS011;55052;52.056;5.296;2022-08-21T02:15:52;5.10;;;3.13;;
68234;SDS011;55052;52.056;5.296;2022-08-21T02:18:18;6.30;;;3.88;;
68234;SDS011;55052;52.056;5.296;2022-08-21T02:20:46;7.10;;;4.15;;
68234;SDS011;55052;52.056;5.296;2022-08-21T02:23:21;5.80;;;3.58;;
68234;SDS011;55052;52.056;5.296;2022-08-21T02:25:52;7.13;;;3.90;;
68234;SDS011;55052;52.056;5.296;2022-08-21T02:28:21;12.32;;;4.45;;
68234;SDS011;55052;52.056;5.296;2022-08-21T02:30:48;5.95;;;3.55;;
68234;SDS011;55052;52.056;5.296;2022-08-21T02:33:16;6.43;;;3.90;;
68234;SDS011;55052;52.056;5.296;2022-08-21T02:35:43;6.97;;;3.70;;
68234;SDS011;55052;52.056;5.296;2022-08-21T02:38:13;7.93;;;3.80;;
68234;SDS011;55052;52.056;5.296;2022-08-21T02:40:44;7.45;;;3.33;;
68234;SDS011;55052;52.056;5.296;2022-08-21T02:43:16;6.25;;;3.70;;
68234;SDS011;55052;52.056;5.296;2022-08-21T02:45:44;6.97;;;3.65;;
68234;SDS011;55052;52.056;5.296;2022-08-21T02:48:13;7.10;;;4.00;;
68234;SDS011;55052;52.056;5.296;2022-08-21T02:50:43;6.55;;;3.35;;
68234;SDS011;55052;52.056;5.296;2022-08-21T02:53:13;8.23;;;3.70;;
68234;SDS011;55052;52.056;5.296;2022-08-21T02:55:46;6.35;;;3.67;;
68234;SDS011;55052;52.056;5.296;2022-08-21T02:58:15;5.35;;;3.30;;
68234;SDS011;55052;52.056;5.296;2022-08-21T03:00:44;5.87;;;3.77;;
68234;SDS011;55052;52.056;5.296;2022-08-21T03:03:11;6.43;;;3.70;;
68234;SDS011;55052;52.056;5.296;2022-08-21T03:05:40;7.35;;;3.65;;
68234;SDS011;55052;52.056;5.296;2022-08-21T03:08:09;9.85;;;3.65;;
68234;SDS011;55052;52.056;5.296;2022-08-21T03:10:38;6.38;;;3.63;;
68234;SDS011;55052;52.056;5.296;2022-08-21T03:13:08;6.28;;;3.40;;
68234;SDS011;55052;52.056;5.296;2022-08-21T03:15:35;6.82;;;3.75;;
68234;SDS011;55052;52.056;5.296;2022-08-21T03:18:03;5.68;;;3.60;;
68234;SDS011;55052;52.056;5.296;2022-08-21T03:20:31;8.65;;;3.80;;
68234;SDS011;55052;52.056;5.296;2022-08-21T03:22:58;6.40;;;3.90;;
68234;SDS011;55052;52.056;5.296;2022-08-21T03:25:26;7.47;;;3.75;;
68234;SDS011;55052;52.056;5.296;2022-08-21T03:28:07;5.78;;;3.45;;
68234;SDS011;55052;52.056;5.296;2022-08-21T03:30:38;8.35;;;3.72;;
68234;SDS011;55052;52.056;5.296;2022-08-21T03:33:16;7.25;;;4.32;;
68234;SDS011;55052;52.056;5.296;2022-08-21T03:35:50;6.75;;;3.90;;
68234;SDS011;55052;52.056;5.296;2022-08-21T03:38:24;7.47;;;4.00;;
68234;SDS011;55052;52.056;5.296;2022-08-21T03:40:52;6.32;;;3.58;;
68234;SDS011;55052;52.056;5.296;2022-08-21T03:43:19;7.00;;;3.83;;
68234;SDS011;55052;52.056;5.296;2022-08-21T03:45:46;7.20;;;4.20;;
68234;SDS011;55052;52.056;5.296;2022-08-21T03:48:13;9.35;;;4.25;;
68234;SDS011;55052;52.056;5.296;2022-08-21T03:50:41;9.30;;;4.63;;
68234;SDS011;55052;52.056;5.296;2022-08-21T03:53:09;8.55;;;4.43;;
68234;SDS011;55052;52.056;5.296;2022-08-21T03:55:43;10.35;;;4.43;;
68234;SDS011;55052;52.056;5.296;2022-08-21T03:58:16;11.30;;;4.25;;
68234;SDS011;55052;52.056;5.296;2022-08-21T04:00:45;7.13;;;4.22;;
68234;SDS011;55052;52.056;5.296;2022-08-21T04:03:12;10.43;;;4.20;;
68234;SDS011;55052;52.056;5.296;2022-08-21T04:05:39;8.05;;;4.35;;
68234;SDS011;55052;52.056;5.296;2022-08-21T04:08:07;7.47;;;4.32;;
68234;SDS011;55052;52.056;5.296;2022-08-21T04:10:35;7.57;;;4.13;;
68234;SDS011;55052;52.056;5.296;2022-08-21T04:13:03;7.50;;;3.88;;
68234;SDS011;55052;52.056;5.296;2022-08-21T04:15:31;8.20;;;4.55;;
68234;SDS011;55052;52.056;5.296;2022-08-21T04:17:58;9.38;;;4.30;;
68234;SDS011;55052;52.056;5.296;2022-08-21T04:20:25;9.98;;;4.35;;
68234;SDS011;55052;52.056;5.296;2022-08-21T04:22:53;6.88;;;4.00;;
68234;SDS011;55052;52.056;5.296;2022-08-21T04:25:20;6.88;;;4.43;;
68234;SDS011;55052;52.056;5.296;2022-08-21T04:27:48;6.07;;;3.80;;
68234;SDS011;55052;52.056;5.296;2022-08-21T04:30:15;7.40;;;4.45;;
68234;SDS011;55052;52.056;5.296;2022-08-21T04:32:43;8.48;;;4.43;;
68234;SDS011;55052;52.056;5.296;2022-08-21T04:35:12;7.65;;;4.53;;
68234;SDS011;55052;52.056;5.296;2022-08-21T04:37:40;7.13;;;4.47;;
68234;SDS011;55052;52.056;5.296;2022-08-21T04:40:08;10.00;;;4.60;;
68234;SDS011;55052;52.056;5.296;2022-08-21T04:42:41;7.40;;;4.60;;
68234;SDS011;55052;52.056;5.296;2022-08-21T04:45:18;8.23;;;4.72;;
68234;SDS011;55052;52.056;5.296;2022-08-21T04:47:48;7.72;;;4.60;;
68234;SDS011;55052;52.056;5.296;2022-08-21T04:50:18;9.05;;;4.78;;
68234;SDS011;55052;52.056;5.296;2022-08-21T04:52:50;8.07;;;4.63;;
68234;SDS011;55052;52.056;5.296;2022-08-21T04:55:17;8.30;;;4.85;;
68234;SDS011;55052;52.056;5.296;2022-08-21T04:57:45;8.30;;;4.72;;
68234;SDS011;55052;52.056;5.296;2022-08-21T05:00:15;8.82;;;5.03;;
68234;SDS011;55052;52.056;5.296;2022-08-21T05:02:45;11.25;;;5.60;;
68234;SDS011;55052;52.056;5.296;2022-08-21T05:05:16;9.57;;;5.28;;
68234;SDS011;55052;52.056;5.296;2022-08-21T05:07:43;7.40;;;4.50;;
68234;SDS011;55052;52.056;5.296;2022-08-21T05:10:11;9.88;;;4.68;;
68234;SDS011;55052;52.056;5.296;2022-08-21T05:12:40;14.65;;;5.43;;
68234;SDS011;55052;52.056;5.296;2022-08-21T05:15:09;8.95;;;4.78;;
68234;SDS011;55052;52.056;5.296;2022-08-21T05:17:39;8.50;;;4.70;;
68234;SDS011;55052;52.056;5.296;2022-08-21T05:20:07;10.45;;;5.13;;
68234;SDS011;55052;52.056;5.296;2022-08-21T05:22:35;9.32;;;4.80;;
68234;SDS011;55052;52.056;5.296;2022-08-21T05:25:03;8.82;;;4.68;;
68234;SDS011;55052;52.056;5.296;2022-08-21T05:27:35;7.72;;;4.35;;
68234;SDS011;55052;52.056;5.296;2022-08-21T05:30:04;8.70;;;4.82;;
68234;SDS011;55052;52.056;5.296;2022-08-21T05:32:34;8.50;;;4.55;;
68234;SDS011;55052;52.056;5.296;2022-08-21T05:35:02;8.75;;;4.63;;
68234;SDS011;55052;52.056;5.296;2022-08-21T05:37:33;9.07;;;5.13;;
68234;SDS011;55052;52.056;5.296;2022-08-21T05:40:00;8.05;;;5.10;;
68234;SDS011;55052;52.056;5.296;2022-08-21T05:42:47;8.80;;;5.30;;
68234;SDS011;55052;52.056;5.296;2022-08-21T05:45:24;10.30;;;5.60;;
68234;SDS011;55052;52.056;5.296;2022-08-21T05:48:13;12.90;;;6.38;;
68234;SDS011;55052;52.056;5.296;2022-08-21T05:50:42;11.60;;;5.78;;
68234;SDS011;55052;52.056;5.296;2022-08-21T05:53:10;12.23;;;6.35;;
68234;SDS011;55052;52.056;5.296;2022-08-21T05:55:38;10.27;;;6.00;;
68234;SDS011;55052;52.056;5.296;2022-08-21T05:58:15;11.90;;;6.03;;
68234;SDS011;55052;52.056;5.296;2022-08-21T06:00:44;15.95;;;6.95;;
68234;SDS011;55052;52.056;5.296;2022-08-21T06:03:17;13.55;;;6.57;;
68234;SDS011;55052;52.056;5.296;2022-08-21T06:05:47;15.05;;;7.65;;
68234;SDS011;55052;52.056;5.296;2022-08-21T06:08:15;11.73;;;7.22;;
68234;SDS011;55052;52.056;5.296;2022-08-21T06:10:43;12.05;;;7.18;;
68234;SDS011;55052;52.056;5.296;2022-08-21T06:13:10;14.15;;;7.22;;
68234;SDS011;55052;52.056;5.296;2022-08-21T06:15:37;15.05;;;7.20;;
68234;SDS011;55052;52.056;5.296;2022-08-21T06:18:05;14.75;;;6.78;;
68234;SDS011;55052;52.056;5.296;2022-08-21T06:20:32;15.68;;;7.05;;
68234;SDS011;55052;52.056;5.296;2022-08-21T06:22:59;16.35;;;7.18;;
68234;SDS011;55052;52.056;5.296;2022-08-21T06:25:26;11.50;;;6.63;;
68234;SDS011;55052;52.056;5.296;2022-08-21T06:27:53;12.77;;;6.93;;
68234;SDS011;55052;52.056;5.296;2022-08-21T06:30:27;15.88;;;7.03;;
68234;SDS011;55052;52.056;5.296;2022-08-21T06:32:53;14.02;;;6.95;;
68234;SDS011;55052;52.056;5.296;2022-08-21T06:35:20;15.25;;;7.47;;
68234;SDS011;55052;52.056;5.296;2022-08-21T06:37:47;14.65;;;6.78;;
68234;SDS011;55052;52.056;5.296;2022-08-21T06:40:14;19.25;;;7.43;;
68234;SDS011;55052;52.056;5.296;2022-08-21T06:42:41;15.48;;;7.32;;
68234;SDS011;55052;52.056;5.296;2022-08-21T06:45:16;16.35;;;6.90;;
68234;SDS011;55052;52.056;5.296;2022-08-21T06:47:42;12.95;;;6.53;;
68234;SDS011;55052;52.056;5.296;2022-08-21T06:50:09;13.80;;;6.70;;
68234;SDS011;55052;52.056;5.296;2022-08-21T06:52:37;18.80;;;6.47;;
68234;SDS011;55052;52.056;5.296;2022-08-21T06:55:05;15.18;;;6.30;;
68234;SDS011;55052;52.056;5.296;2022-08-21T06:57:34;15.18;;;7.03;;
68234;SDS011;55052;52.056;5.296;2022-08-21T07:00:03;16.23;;;7.05;;
68234;SDS011;55052;52.056;5.296;2022-08-21T07:02:31;17.35;;;7.10;;
68234;SDS011;55052;52.056;5.296;2022-08-21T07:04:59;13.45;;;6.25;;
68234;SDS011;55052;52.056;5.296;2022-08-21T07:07:42;19.00;;;7.55;;
68234;SDS011;55052;52.056;5.296;2022-08-21T07:10:09;16.98;;;6.45;;
68234;SDS011;55052;52.056;5.296;2022-08-21T07:12:47;18.58;;;6.78;;
68234;SDS011;55052;52.056;5.296;2022-08-21T07:15:15;14.80;;;6.03;;
68234;SDS011;55052;52.056;5.296;2022-08-21T07:17:42;20.08;;;7.20;;
68234;SDS011;55052;52.056;5.296;2022-08-21T07:20:09;18.45;;;7.63;;
68234;SDS011;55052;52.056;5.296;2022-08-21T07:22:38;19.08;;;6.88;;
68234;SDS011;55052;52.056;5.296;2022-08-21T07:25:06;15.65;;;6.13;;
68234;SDS011;55052;52.056;5.296;2022-08-21T07:27:33;14.70;;;7.10;;
68234;SDS011;55052;52.056;5.296;2022-08-21T07:30:00;17.20;;;6.38;;
68234;SDS011;55052;52.056;5.296;2022-08-21T07:32:27;14.15;;;6.53;;
68234;SDS011;55052;52.056;5.296;2022-08-21T07:34:54;17.40;;;5.82;;
68234;SDS011;55052;52.056;5.296;2022-08-21T07:37:21;18.52;;;6.35;;
68234;SDS011;55052;52.056;5.296;2022-08-21T07:39:47;17.05;;;6.45;;
68234;SDS011;55052;52.056;5.296;2022-08-21T07:42:15;19.60;;;6.30;;
68234;SDS011;55052;52.056;5.296;2022-08-21T07:44:43;14.82;;;6.47;;
68234;SDS011;55052;52.056;5.296;2022-08-21T07:47:09;11.45;;;6.63;;
68234;SDS011;55052;52.056;5.296;2022-08-21T07:49:36;14.30;;;5.75;;
68234;SDS011;55052;52.056;5.296;2022-08-21T07:52:03;18.60;;;6.63;;
68234;SDS011;55052;52.056;5.296;2022-08-21T07:54:30;17.52;;;6.60;;
68234;SDS011;55052;52.056;5.296;2022-08-21T07:56:59;15.27;;;5.80;;
68234;SDS011;55052;52.056;5.296;2022-08-21T07:59:27;18.92;;;5.63;;
68234;SDS011;55052;52.056;5.296;2022-08-21T08:01:54;16.27;;;6.15;;
68234;SDS011;55052;52.056;5.296;2022-08-21T08:04:21;15.90;;;6.20;;
68234;SDS011;55052;52.056;5.296;2022-08-21T08:06:51;16.90;;;6.40;;
68234;SDS011;55052;52.056;5.296;2022-08-21T08:09:18;14.23;;;6.00;;
68234;SDS011;55052;52.056;5.296;2022-08-21T08:11:45;19.00;;;7.10;;
68234;SDS011;55052;52.056;5.296;2022-08-21T08:14:12;18.00;;;6.22;;
68234;SDS011;55052;52.056;5.296;2022-08-21T08:16:39;14.75;;;5.95;;
68234;SDS011;55052;52.056;5.296;2022-08-21T08:19:06;16.55;;;6.30;;
68234;SDS011;55052;52.056;5.296;2022-08-21T08:21:33;15.23;;;5.90;;
68234;SDS011;55052;52.056;5.296;2022-08-21T08:24:00;18.85;;;6.60;;
68234;SDS011;55052;52.056;5.296;2022-08-21T08:26:44;17.85;;;6.05;;
68234;SDS011;55052;52.056;5.296;2022-08-21T08:29:18;16.02;;;5.65;;
68234;SDS011;55052;52.056;5.296;2022-08-21T08:31:45;15.95;;;5.72;;
68234;SDS011;55052;52.056;5.296;2022-08-21T08:34:12;20.08;;;5.70;;
68234;SDS011;55052;52.056;5.296;2022-08-21T08:36:50;16.83;;;5.32;;
68234;SDS011;55052;52.056;5.296;2022-08-21T08:39:17;16.67;;;5.32;;
68234;SDS011;55052;52.056;5.296;2022-08-21T08:42:05;17.50;;;5.82;;
68234;SDS011;55052;52.056;5.296;2022-08-21T08:45:00;16.90;;;5.88;;
68234;SDS011;55052;52.056;5.296;2022-08-21T08:47:28;15.07;;;5.57;;
68234;SDS011;55052;52.056;5.296;2022-08-21T08:50:33;18.48;;;6.10;;
68234;SDS011;55052;52.056;5.296;2022-08-21T08:53:04;18.27;;;6.10;;
68234;SDS011;55052;52.056;5.296;2022-08-21T08:55:37;14.95;;;4.70;;
68234;SDS011;55052;52.056;5.296;2022-08-21T08:58:07;12.50;;;4.53;;
68234;SDS011;55052;52.056;5.296;2022-08-21T09:00:39;12.55;;;5.00;;
68234;SDS011;55052;52.056;5.296;2022-08-21T09:03:06;15.13;;;4.95;;
68234;SDS011;55052;52.056;5.296;2022-08-21T09:05:40;19.60;;;4.57;;
68234;SDS011;55052;52.056;5.296;2022-08-21T09:10:54;14.63;;;4.32;;
68234;SDS011;55052;52.056;5.296;2022-08-21T09:16:25;22.48;;;4.25;;
68234;SDS011;55052;52.056;5.296;2022-08-21T09:19:10;16.80;;;4.50;;
68234;SDS011;55052;52.056;5.296;2022-08-21T09:21:57;12.70;;;3.72;;
68234;SDS011;55052;52.056;5.296;2022-08-21T09:27:26;16.73;;;4.10;;
68234;SDS011;55052;52.056;5.296;2022-08-21T09:29:56;13.77;;;4.13;;
68234;SDS011;55052;52.056;5.296;2022-08-21T09:32:25;15.00;;;4.15;;
68234;SDS011;55052;52.056;5.296;2022-08-21T09:35:10;12.10;;;3.67;;
68234;SDS011;55052;52.056;5.296;2022-08-21T09:40:30;11.18;;;3.40;;
68234;SDS011;55052;52.056;5.296;2022-08-21T09:45:39;9.95;;;3.60;;
68234;SDS011;55052;52.056;5.296;2022-08-21T09:48:09;11.18;;;3.50;;
68234;SDS011;55052;52.056;5.296;2022-08-21T09:50:39;9.80;;;3.15;;
68234;SDS011;55052;52.056;5.296;2022-08-21T09:53:14;8.77;;;3.08;;
68234;SDS011;55052;52.056;5.296;2022-08-21T09:55:53;13.77;;;3.50;;
68234;SDS011;55052;52.056;5.296;2022-08-21T09:58:41;11.20;;;3.33;;
68234;SDS011;55052;52.056;5.296;2022-08-21T10:01:21;12.70;;;3.10;;
68234;SDS011;55052;52.056;5.296;2022-08-21T10:04:11;11.85;;;3.22;;
68234;SDS011;55052;52.056;5.296;2022-08-21T10:06:37;15.43;;;3.72;;
68234;SDS011;55052;52.056;5.296;2022-08-21T10:09:05;13.52;;;3.60;;
68234;SDS011;55052;52.056;5.296;2022-08-21T10:11:45;15.18;;;3.10;;
68234;SDS011;55052;52.056;5.296;2022-08-21T10:14:34;10.93;;;3.65;;
68234;SDS011;55052;52.056;5.296;2022-08-21T10:17:26;13.73;;;2.80;;
68234;SDS011;55052;52.056;5.296;2022-08-21T10:20:08;10.52;;;2.92;;
68234;SDS011;55052;52.056;5.296;2022-08-21T10:25:57;7.57;;;2.50;;
68234;SDS011;55052;52.056;5.296;2022-08-21T10:28:42;16.13;;;3.50;;
68234;SDS011;55052;52.056;5.296;2022-08-21T10:37:12;11.38;;;3.15;;
68234;SDS011;55052;52.056;5.296;2022-08-21T10:48:29;12.45;;;3.10;;
68234;SDS011;55052;52.056;5.296;2022-08-21T10:54:13;8.32;;;2.38;;
68234;SDS011;55052;52.056;5.296;2022-08-21T10:56:49;7.47;;;2.38;;
68234;SDS011;55052;52.056;5.296;2022-08-21T11:04:40;9.82;;;2.30;;
68234;SDS011;55052;52.056;5.296;2022-08-21T11:07:27;12.43;;;2.88;;
68234;SDS011;55052;52.056;5.296;2022-08-21T11:10:02;11.38;;;2.58;;
68234;SDS011;55052;52.056;5.296;2022-08-21T11:13:09;8.75;;;2.60;;
68234;SDS011;55052;52.056;5.296;2022-08-21T11:15:52;12.52;;;2.67;;
68234;SDS011;55052;52.056;5.296;2022-08-21T11:18:26;9.20;;;2.20;;
68234;SDS011;55052;52.056;5.296;2022-08-21T11:26:35;10.43;;;2.33;;
68234;SDS011;55052;52.056;5.296;2022-08-21T11:29:21;10.23;;;2.45;;
68234;SDS011;55052;52.056;5.296;2022-08-21T11:41:13;11.68;;;2.58;;
68234;SDS011;55052;52.056;5.296;2022-08-21T11:43:46;6.43;;;2.15;;
68234;SDS011;55052;52.056;5.296;2022-08-21T11:52:36;6.20;;;2.10;;
68234;SDS011;55052;52.056;5.296;2022-08-21T11:57:56;7.72;;;2.15;;
68234;SDS011;55052;52.056;5.296;2022-08-21T12:00:31;10.60;;;2.50;;
68234;SDS011;55052;52.056;5.296;2022-08-21T12:03:06;6.75;;;2.00;;
68234;SDS011;55052;52.056;5.296;2022-08-21T12:05:42;7.57;;;2.45;;
68234;SDS011;55052;52.056;5.296;2022-08-21T12:08:13;7.80;;;2.20;;
68234;SDS011;55052;52.056;5.296;2022-08-21T12:11:02;12.32;;;2.47;;
68234;SDS011;55052;52.056;5.296;2022-08-21T12:13:34;7.25;;;2.20;;
68234;SDS011;55052;52.056;5.296;2022-08-21T12:16:35;9.80;;;2.33;;
68234;SDS011;55052;52.056;5.296;2022-08-21T12:19:05;6.07;;;2.08;;
68234;SDS011;55052;52.056;5.296;2022-08-21T12:21:48;8.60;;;2.10;;
68234;SDS011;55052;52.056;5.296;2022-08-21T12:26:55;9.05;;;2.30;;
68234;SDS011;55052;52.056;5.296;2022-08-21T12:29:33;7.63;;;2.05;;
68234;SDS011;55052;52.056;5.296;2022-08-21T12:32:04;7.28;;;1.75;;
68234;SDS011;55052;52.056;5.296;2022-08-21T12:35:10;10.13;;;2.42;;
68234;SDS011;55052;52.056;5.296;2022-08-21T12:37:52;9.80;;;2.20;;
68234;SDS011;55052;52.056;5.296;2022-08-21T12:40:31;7.97;;;1.90;;
68234;SDS011;55052;52.056;5.296;2022-08-21T12:46:27;8.45;;;1.98;;
68234;SDS011;55052;52.056;5.296;2022-08-21T12:49:05;9.00;;;2.20;;
68234;SDS011;55052;52.056;5.296;2022-08-21T12:51:48;7.72;;;1.98;;
68234;SDS011;55052;52.056;5.296;2022-08-21T12:54:32;7.07;;;2.13;;
68234;SDS011;55052;52.056;5.296;2022-08-21T12:57:06;8.82;;;2.45;;
68234;SDS011;55052;52.056;5.296;2022-08-21T12:59:38;7.40;;;1.75;;
68234;SDS011;55052;52.056;5.296;2022-08-21T13:02:11;7.22;;;1.83;;
68234;SDS011;55052;52.056;5.296;2022-08-21T13:07:15;7.68;;;2.33;;
68234;SDS011;55052;52.056;5.296;2022-08-21T13:09:51;8.07;;;1.90;;
68234;SDS011;55052;52.056;5.296;2022-08-21T13:12:21;8.82;;;2.25;;
68234;SDS011;55052;52.056;5.296;2022-08-21T13:14:55;6.93;;;1.95;;
68234;SDS011;55052;52.056;5.296;2022-08-21T13:17:24;6.40;;;1.92;;
68234;SDS011;55052;52.056;5.296;2022-08-21T13:20:38;7.85;;;2.08;;
68234;SDS011;55052;52.056;5.296;2022-08-21T13:22:53;6.72;;;2.10;;
68234;SDS011;55052;52.056;5.296;2022-08-21T13:25:21;9.82;;;2.10;;
68234;SDS011;55052;52.056;5.296;2022-08-21T13:28:07;10.43;;;2.42;;
68234;SDS011;55052;52.056;5.296;2022-08-21T13:30:39;6.22;;;1.95;;
68234;SDS011;55052;52.056;5.296;2022-08-21T13:33:09;6.65;;;2.15;;
68234;SDS011;55052;52.056;5.296;2022-08-21T13:36:01;7.60;;;2.17;;
68234;SDS011;55052;52.056;5.296;2022-08-21T13:38:38;7.50;;;2.20;;
68234;SDS011;55052;52.056;5.296;2022-08-21T13:41:10;7.82;;;2.45;;
68234;SDS011;55052;52.056;5.296;2022-08-21T13:43:47;8.90;;;2.47;;
68234;SDS011;55052;52.056;5.296;2022-08-21T13:46:26;7.60;;;2.13;;
68234;SDS011;55052;52.056;5.296;2022-08-21T13:48:57;7.45;;;2.22;;
68234;SDS011;55052;52.056;5.296;2022-08-21T13:51:26;8.07;;;2.25;;
68234;SDS011;55052;52.056;5.296;2022-08-21T13:53:53;8.45;;;1.90;;
68234;SDS011;55052;52.056;5.296;2022-08-21T13:56:25;7.05;;;2.35;;
68234;SDS011;55052;52.056;5.296;2022-08-21T13:58:56;7.07;;;1.88;;
68234;SDS011;55052;52.056;5.296;2022-08-21T14:01:28;7.38;;;1.92;;
68234;SDS011;55052;52.056;5.296;2022-08-21T14:04:06;10.07;;;2.40;;
68234;SDS011;55052;52.056;5.296;2022-08-21T14:06:50;6.95;;;2.00;;
68234;SDS011;55052;52.056;5.296;2022-08-21T14:12:02;8.70;;;2.15;;
68234;SDS011;55052;52.056;5.296;2022-08-21T14:14:49;6.45;;;1.90;;
68234;SDS011;55052;52.056;5.296;2022-08-21T14:17:26;5.78;;;2.03;;
68234;SDS011;55052;52.056;5.296;2022-08-21T14:19:58;6.03;;;1.63;;
68234;SDS011;55052;52.056;5.296;2022-08-21T14:22:30;9.27;;;2.08;;
68234;SDS011;55052;52.056;5.296;2022-08-21T14:25:28;8.05;;;2.10;;
68234;SDS011;55052;52.056;5.296;2022-08-21T14:28:05;6.07;;;1.73;;
68234;SDS011;55052;52.056;5.296;2022-08-21T14:30:45;9.07;;;1.95;;
68234;SDS011;55052;52.056;5.296;2022-08-21T14:33:18;7.15;;;1.90;;
68234;SDS011;55052;52.056;5.296;2022-08-21T14:35:52;7.63;;;2.13;;
68234;SDS011;55052;52.056;5.296;2022-08-21T14:38:20;7.63;;;1.92;;
68234;SDS011;55052;52.056;5.296;2022-08-21T14:40:52;7.50;;;1.90;;
68234;SDS011;55052;52.056;5.296;2022-08-21T14:43:30;6.63;;;1.95;;
68234;SDS011;55052;52.056;5.296;2022-08-21T14:45:57;7.60;;;1.92;;
68234;SDS011;55052;52.056;5.296;2022-08-21T14:48:23;9.55;;;2.33;;
68234;SDS011;55052;52.056;5.296;2022-08-21T14:50:50;9.35;;;2.10;;
68234;SDS011;55052;52.056;5.296;2022-08-21T14:53:23;4.93;;;1.83;;
68234;SDS011;55052;52.056;5.296;2022-08-21T14:55:50;9.18;;;2.05;;
68234;SDS011;55052;52.056;5.296;2022-08-21T14:58:37;7.07;;;1.75;;
68234;SDS011;55052;52.056;5.296;2022-08-21T15:01:07;7.95;;;1.90;;
68234;SDS011;55052;52.056;5.296;2022-08-21T15:03:36;5.75;;;1.60;;
68234;SDS011;55052;52.056;5.296;2022-08-21T15:06:03;6.22;;;1.80;;
68234;SDS011;55052;52.056;5.296;2022-08-21T15:08:32;7.45;;;2.13;;
68234;SDS011;55052;52.056;5.296;2022-08-21T15:10:59;6.90;;;2.30;;
68234;SDS011;55052;52.056;5.296;2022-08-21T15:13:39;9.88;;;2.50;;
68234;SDS011;55052;52.056;5.296;2022-08-21T15:16:07;6.93;;;2.05;;
68234;SDS011;55052;52.056;5.296;2022-08-21T15:21:03;7.03;;;2.03;;
68234;SDS011;55052;52.056;5.296;2022-08-21T15:23:30;8.85;;;2.40;;
68234;SDS011;55052;52.056;5.296;2022-08-21T15:25:56;10.02;;;2.58;;
68234;SDS011;55052;52.056;5.296;2022-08-21T15:28:25;9.15;;;2.10;;
68234;SDS011;55052;52.056;5.296;2022-08-21T15:30:57;7.93;;;2.45;;
68234;SDS011;55052;52.056;5.296;2022-08-21T15:33:26;8.35;;;1.90;;
68234;SDS011;55052;52.056;5.296;2022-08-21T15:35:53;7.60;;;2.30;;
68234;SDS011;55052;52.056;5.296;2022-08-21T15:38:20;7.10;;;2.03;;
68234;SDS011;55052;52.056;5.296;2022-08-21T15:40:47;8.32;;;1.90;;
68234;SDS011;55052;52.056;5.296;2022-08-21T15:46:10;9.00;;;2.25;;
68234;SDS011;55052;52.056;5.296;2022-08-21T15:51:05;10.95;;;2.40;;
68234;SDS011;55052;52.056;5.296;2022-08-21T15:53:32;8.63;;;2.10;;
68234;SDS011;55052;52.056;5.296;2022-08-21T15:56:05;5.93;;;1.63;;
68234;SDS011;55052;52.056;5.296;2022-08-21T15:58:46;7.25;;;1.92;;
68234;SDS011;55052;52.056;5.296;2022-08-21T16:01:13;9.95;;;2.15;;
68234;SDS011;55052;52.056;5.296;2022-08-21T16:03:40;5.80;;;1.90;;
68234;SDS011;55052;52.056;5.296;2022-08-21T16:06:07;9.57;;;2.58;;
68234;SDS011;55052;52.056;5.296;2022-08-21T16:08:34;8.40;;;1.90;;
68234;SDS011;55052;52.056;5.296;2022-08-21T16:11:01;8.38;;;1.80;;
68234;SDS011;55052;52.056;5.296;2022-08-21T16:13:28;6.68;;;1.95;;
68234;SDS011;55052;52.056;5.296;2022-08-21T16:16:01;8.75;;;2.10;;
68234;SDS011;55052;52.056;5.296;2022-08-21T16:18:28;6.35;;;1.92;;
68234;SDS011;55052;52.056;5.296;2022-08-21T16:20:54;7.10;;;2.00;;
68234;SDS011;55052;52.056;5.296;2022-08-21T16:23:21;6.05;;;1.70;;
68234;SDS011;55052;52.056;5.296;2022-08-21T16:25:48;5.75;;;1.90;;
68234;SDS011;55052;52.056;5.296;2022-08-21T16:28:15;9.60;;;2.08;;
68234;SDS011;55052;52.056;5.296;2022-08-21T16:30:47;7.88;;;2.42;;
68234;SDS011;55052;52.056;5.296;2022-08-21T16:33:20;8.48;;;2.50;;
68234;SDS011;55052;52.056;5.296;2022-08-21T16:35:56;8.90;;;2.30;;